Time;durP1;ratioP1;P1;durP2;ratioP2;P2;SDS_P1;SDS_P2;PMS_P1;PMS_P2;Temp;Humidity;BMP_temperature;BMP_pressure;BME280_temperature;BME280_humidity;BME280_pressure;Samples;Min_cycle;Max_cycle;Signal;HPM_P1;HPM_P2
2022/10/29 00:00:56;;;;;;;1.13;0.50;;;;;;;;;;6184235;23;20176;-87
2022/10/29 00:03:25;;;;;;;14.53;3.60;;;;;;;;;;6184213;23;20231;-87
2022/10/29 00:05:58;;;;;;;4.33;4.10;;;;;;;;;;6183977;23;20181;-87
2022/10/29 00:08:28;;;;;;;3.90;2.67;;;;;;;;;;6184442;23;20171;-87
2022/10/29 00:10:57;;;;;;;1.80;1.70;;;;;;;;;;6184021;23;20179;-87
2022/10/29 00:13:25;;;;;;;2.13;2.00;;;;;;;;;;6184026;23;20246;-87
2022/10/29 00:15:53;;;;;;;0.30;0.30;;;;;;;;;;6185599;23;20173;-87
2022/10/29 00:18:22;;;;;;;0.30;0.30;;;;;;;;;;6184234;23;20180;-87
2022/10/29 00:20:50;;;;;;;0.40;0.40;;;;;;;;;;6184008;23;20192;-87
2022/10/29 00:23:19;;;;;;;0.53;0.53;;;;;;;;;;6185889;23;20180;-87
2022/10/29 00:25:49;;;;;;;0.40;0.40;;;;;;;;;;6183986;23;20210;-87
2022/10/29 00:28:17;;;;;;;0.40;0.40;;;;;;;;;;6185533;23;20183;-87
2022/10/29 00:30:45;;;;;;;0.60;0.60;;;;;;;;;;6184479;23;20214;-88
2022/10/29 00:33:15;;;;;;;0.40;0.40;;;;;;;;;;6184223;23;20247;-87
2022/10/29 00:35:43;;;;;;;0.40;0.40;;;;;;;;;;6183860;23;20227;-87
2022/10/29 00:38:12;;;;;;;0.40;0.40;;;;;;;;;;6185459;23;20222;-87
2022/10/29 00:40:41;;;;;;;0.40;0.40;;;;;;;;;;6183941;23;20232;-87
2022/10/29 00:43:14;;;;;;;0.60;0.50;;;;;;;;;;6184094;23;20249;-87
2022/10/29 00:45:46;;;;;;;0.40;0.40;;;;;;;;;;6184164;23;20187;-87
2022/10/29 00:48:14;;;;;;;0.30;0.30;;;;;;;;;;6184629;23;20230;-87
2022/10/29 00:50:43;;;;;;;0.30;0.30;;;;;;;;;;6186443;23;20169;-87
2022/10/29 00:53:11;;;;;;;0.40;0.40;;;;;;;;;;6186148;23;20180;-87
2022/10/29 00:55:40;;;;;;;0.30;0.30;;;;;;;;;;6186228;23;20227;-87
2022/10/29 00:58:10;;;;;;;0.47;0.47;;;;;;;;;;6185705;23;20181;-87
2022/10/29 01:00:40;;;;;;;0.40;0.40;;;;;;;;;;6187216;23;20173;-87
2022/10/29 01:03:08;;;;;;;0.40;0.40;;;;;;;;;;6185331;23;20200;-87
2022/10/29 01:05:37;;;;;;;0.60;0.60;;;;;;;;;;6185875;23;20196;-87
2022/10/29 01:08:08;;;;;;;3.93;1.90;;;;;;;;;;6185688;23;20179;-87
2022/10/29 01:10:44;;;;;;;0.47;0.47;;;;;;;;;;6186128;23;20184;-87
2022/10/29 01:13:33;;;;;;;0.40;0.40;;;;;;;;;;6187114;23;20174;-87
2022/10/29 01:16:08;;;;;;;0.40;0.40;;;;;;;;;;6177819;23;20172;-87
2022/10/29 01:18:38;;;;;;;0.50;0.50;;;;;;;;;;6186081;23;20170;-88
2022/10/29 01:21:28;;;;;;;0.87;0.87;;;;;;;;;;6185604;23;20171;-87
2022/10/29 01:24:18;;;;;;;0.40;0.40;;;;;;;;;;6185905;23;20171;-87
2022/10/29 01:27:01;;;;;;;0.40;0.40;;;;;;;;;;6185619;23;20179;-87
2022/10/29 01:29:36;;;;;;;0.40;0.40;;;;;;;;;;6184156;23;20182;-87
2022/10/29 01:32:10;;;;;;;0.50;0.50;;;;;;;;;;6185466;23;20180;-88
2022/10/29 01:34:41;;;;;;;0.40;0.40;;;;;;;;;;6187127;23;20206;-87
2022/10/29 01:37:14;;;;;;;0.40;0.40;;;;;;;;;;6185449;23;20241;-87
2022/10/29 01:39:45;;;;;;;86.97;6.87;;;;;;;;;;6185510;23;20180;-87
2022/10/29 01:42:17;;;;;;;105.07;8.07;;;;;;;;;;6186815;23;20284;-87
2022/10/29 01:44:48;;;;;;;43.90;5.87;;;;;;;;;;6186972;23;20246;-87
2022/10/29 01:47:19;;;;;;;28.17;3.63;;;;;;;;;;6185520;23;20183;-87
2022/10/29 01:49:50;;;;;;;66.20;11.57;;;;;;;;;;6185533;23;20190;-87
2022/10/29 01:52:19;;;;;;;59.90;9.60;;;;;;;;;;6186701;23;20600;-87
2022/10/29 01:54:48;;;;;;;75.00;15.63;;;;;;;;;;6185581;23;20171;-88
2022/10/29 01:57:27;;;;;;;55.63;12.40;;;;;;;;;;6185251;23;20178;-88
2022/10/29 01:59:56;;;;;;;29.50;8.47;;;;;;;;;;6185411;23;20217;-88
2022/10/29 02:02:30;;;;;;;37.17;11.10;;;;;;;;;;6186495;23;20179;-88
2022/10/29 02:05:02;;;;;;;29.07;9.23;;;;;;;;;;6185461;23;20203;-88
2022/10/29 02:07:45;;;;;;;56.87;14.07;;;;;;;;;;6185100;23;20179;-88
2022/10/29 02:10:19;;;;;;;46.63;13.90;;;;;;;;;;6186774;23;20233;-87
2022/10/29 02:12:49;;;;;;;34.73;8.80;;;;;;;;;;6186272;23;20205;-88
2022/10/29 02:15:20;;;;;;;41.73;10.00;;;;;;;;;;6185056;23;20180;-88
2022/10/29 02:17:49;;;;;;;22.43;11.90;;;;;;;;;;6186673;23;20221;-88
2022/10/29 02:20:18;;;;;;;19.07;5.83;;;;;;;;;;6185313;23;20175;-88
2022/10/29 02:22:47;;;;;;;85.10;19.93;;;;;;;;;;6186389;23;20199;-88
2022/10/29 02:25:15;;;;;;;143.33;31.63;;;;;;;;;;6186136;23;20187;-88
2022/10/29 02:27:44;;;;;;;90.77;18.80;;;;;;;;;;6185024;23;20179;-88
2022/10/29 02:30:12;;;;;;;213.37;34.47;;;;;;;;;;6184973;23;20171;-88
2022/10/29 02:32:41;;;;;;;241.97;39.87;;;;;;;;;;6184710;23;20179;-88
2022/10/29 02:35:11;;;;;;;154.00;24.10;;;;;;;;;;6185305;23;20172;-88
2022/10/29 02:37:41;;;;;;;346.93;41.07;;;;;;;;;;6186598;23;20178;-88
2022/10/29 02:40:11;;;;;;;276.27;38.47;;;;;;;;;;6185257;23;20171;-88
2022/10/29 02:42:42;;;;;;;229.90;25.97;;;;;;;;;;6185940;23;20175;-88
2022/10/29 02:45:18;;;;;;;9.33;3.13;;;;;;;;;;6185264;23;20199;-88
2022/10/29 02:47:46;;;;;;;227.13;30.47;;;;;;;;;;6184687;23;20229;-88
2022/10/29 02:50:16;;;;;;;242.97;37.23;;;;;;;;;;6184977;23;20229;-88
2022/10/29 02:52:44;;;;;;;421.07;54.70;;;;;;;;;;6184991;23;20179;-88
2022/10/29 02:55:17;;;;;;;418.20;54.73;;;;;;;;;;6185101;23;20175;-88
2022/10/29 02:57:47;;;;;;;424.90;61.40;;;;;;;;;;6184628;23;20272;-88
2022/10/29 03:00:16;;;;;;;293.53;39.97;;;;;;;;;;6184840;23;20178;-88
2022/10/29 03:02:44;;;;;;;462.30;51.10;;;;;;;;;;6185761;23;20171;-88
2022/10/29 03:05:13;;;;;;;423.90;57.97;;;;;;;;;;6184603;23;20198;-88
2022/10/29 03:07:42;;;;;;;404.23;46.53;;;;;;;;;;6184924;23;20226;-87
2022/10/29 03:10:11;;;;;;;369.10;45.83;;;;;;;;;;6184711;23;20186;-88
2022/10/29 03:12:39;;;;;;;282.23;33.67;;;;;;;;;;6185822;23;20175;-87
2022/10/29 03:15:08;;;;;;;304.20;40.33;;;;;;;;;;6184993;23;20178;-87
2022/10/29 03:17:37;;;;;;;156.07;21.17;;;;;;;;;;6186049;23;20174;-88
2022/10/29 03:20:06;;;;;;;281.60;41.83;;;;;;;;;;6185920;23;20171;-88
2022/10/29 03:22:34;;;;;;;97.47;18.80;;;;;;;;;;6184620;23;20183;-88
2022/10/29 03:25:04;;;;;;;1.57;1.40;;;;;;;;;;6185760;23;20175;-88
2022/10/29 03:27:33;;;;;;;3.43;1.90;;;;;;;;;;6184096;23;20179;-88
2022/10/29 03:30:01;;;;;;;4.43;2.23;;;;;;;;;;6184933;23;20179;-88
2022/10/29 03:32:29;;;;;;;4.03;3.10;;;;;;;;;;6185991;23;20182;-88
2022/10/29 03:34:58;;;;;;;1.07;1.07;;;;;;;;;;6184061;23;20226;-88
2022/10/29 03:37:27;;;;;;;1.23;1.23;;;;;;;;;;6184716;23;20258;-87
2022/10/29 03:39:55;;;;;;;140.47;18.33;;;;;;;;;;6185809;23;20234;-88
2022/10/29 03:42:25;;;;;;;26.13;5.97;;;;;;;;;;6184394;23;20219;-88
2022/10/29 03:44:54;;;;;;;72.60;14.47;;;;;;;;;;6185511;23;20202;-88
2022/10/29 03:47:22;;;;;;;26.33;7.10;;;;;;;;;;6184683;23;20241;-88
2022/10/29 03:49:50;;;;;;;24.77;5.63;;;;;;;;;;6185698;23;20218;-88
2022/10/29 03:52:19;;;;;;;104.87;26.50;;;;;;;;;;6184754;23;20175;-88
2022/10/29 03:54:47;;;;;;;40.23;15.83;;;;;;;;;;6184376;23;20183;-88
2022/10/29 03:57:16;;;;;;;49.20;19.07;;;;;;;;;;6185769;23;20167;-88
2022/10/29 03:59:46;;;;;;;35.83;13.40;;;;;;;;;;6184076;23;20210;-88
2022/10/29 04:02:19;;;;;;;75.20;20.33;;;;;;;;;;6184611;23;20174;-88
2022/10/29 04:04:48;;;;;;;14.13;7.50;;;;;;;;;;6183782;23;20210;-88
2022/10/29 04:07:16;;;;;;;35.13;16.47;;;;;;;;;;6184190;23;20199;-88
2022/10/29 04:09:45;;;;;;;56.47;15.97;;;;;;;;;;6184096;23;20210;-88
2022/10/29 04:12:13;;;;;;;37.67;14.23;;;;;;;;;;6185602;23;20181;-88
2022/10/29 04:14:42;;;;;;;84.00;15.70;;;;;;;;;;6185439;23;20198;-88
2022/10/29 04:17:14;;;;;;;1.33;1.33;;;;;;;;;;6184663;23;20175;-88
2022/10/29 04:19:42;;;;;;;22.97;11.60;;;;;;;;;;6184273;23;20194;-88
2022/10/29 04:22:11;;;;;;;55.30;14.83;;;;;;;;;;6184239;23;20183;-88
2022/10/29 04:24:59;;;;;;;33.17;15.13;;;;;;;;;;6185851;23;20175;-88
2022/10/29 04:27:48;;;;;;;39.03;11.13;;;;;;;;;;6185723;23;20218;-88
2022/10/29 04:30:36;;;;;;;50.83;17.60;;;;;;;;;;6186283;23;20174;-88
2022/10/29 04:33:06;;;;;;;10.83;6.97;;;;;;;;;;6187274;23;20211;-88
2022/10/29 04:35:34;;;;;;;26.67;11.60;;;;;;;;;;6185958;23;20182;-88
2022/10/29 04:38:08;;;;;;;60.87;18.33;;;;;;;;;;6185817;23;20171;-88
2022/10/29 04:40:36;;;;;;;51.93;16.93;;;;;;;;;;6185783;23;20187;-88
2022/10/29 04:43:05;;;;;;;23.70;7.80;;;;;;;;;;6186134;23;20499;-88
2022/10/29 04:45:33;;;;;;;20.50;10.30;;;;;;;;;;6186267;23;20206;-88
2022/10/29 04:48:02;;;;;;;1.70;1.60;;;;;;;;;;6185763;23;20194;-88
2022/10/29 04:50:35;;;;;;;3.37;2.33;;;;;;;;;;6186113;23;20186;-88
2022/10/29 04:53:04;;;;;;;2.07;2.03;;;;;;;;;;6186265;23;20229;-88
2022/10/29 04:55:36;;;;;;;1.33;1.30;;;;;;;;;;6186036;23;20182;-88
2022/10/29 04:58:04;;;;;;;1.00;1.00;;;;;;;;;;6185807;23;20197;-88
2022/10/29 05:00:33;;;;;;;5.23;3.07;;;;;;;;;;6186340;23;20179;-88
2022/10/29 05:03:01;;;;;;;0.40;0.40;;;;;;;;;;6185795;23;20210;-87
2022/10/29 05:05:30;;;;;;;1.80;1.13;;;;;;;;;;6186262;23;20217;-88
2022/10/29 05:08:02;;;;;;;0.93;0.93;;;;;;;;;;6187249;23;20223;-88
2022/10/29 05:10:31;;;;;;;0.37;0.37;;;;;;;;;;6187479;23;20171;-88
2022/10/29 05:13:00;;;;;;;0.90;0.90;;;;;;;;;;6185999;23;20182;-88
2022/10/29 05:15:29;;;;;;;0.40;0.40;;;;;;;;;;6185767;23;20183;-88
2022/10/29 05:17:58;;;;;;;0.93;0.93;;;;;;;;;;6186085;23;20168;-88
2022/10/29 05:20:27;;;;;;;0.60;0.60;;;;;;;;;;6185876;23;20202;-88
2022/10/29 05:23:00;;;;;;;1.90;1.83;;;;;;;;;;6185427;23;20174;-88
2022/10/29 05:25:29;;;;;;;2.07;1.97;;;;;;;;;;6187038;23;20171;-88
2022/10/29 05:28:01;;;;;;;2.10;2.00;;;;;;;;;;6185284;23;20246;-89
2022/10/29 05:30:33;;;;;;;2.53;2.10;;;;;;;;;;6185652;23;20269;-89
2022/10/29 05:33:01;;;;;;;15.47;3.27;;;;;;;;;;6185147;23;20226;-88
2022/10/29 05:35:30;;;;;;;1.47;1.47;;;;;;;;;;6186452;23;20226;-88
2022/10/29 05:37:59;;;;;;;0.50;0.50;;;;;;;;;;6185566;23;20172;-88
2022/10/29 05:40:28;;;;;;;4.73;1.80;;;;;;;;;;6186721;23;20238;-88
2022/10/29 05:42:58;;;;;;;1.13;1.13;;;;;;;;;;6185824;23;20182;-88
2022/10/29 05:45:27;;;;;;;2.10;1.90;;;;;;;;;;6185749;23;20266;-88
2022/10/29 05:47:57;;;;;;;0.90;0.90;;;;;;;;;;6187031;23;20183;-88
2022/10/29 05:50:26;;;;;;;0.93;0.70;;;;;;;;;;6185395;23;20188;-88
2022/10/29 05:52:58;;;;;;;3.83;3.63;;;;;;;;;;6185330;23;20187;-89
2022/10/29 05:55:27;;;;;;;18.83;7.03;;;;;;;;;;6185243;23;20183;-88
2022/10/29 05:57:57;;;;;;;13.83;7.57;;;;;;;;;;6185679;23;20218;-89
2022/10/29 06:00:26;;;;;;;27.13;10.03;;;;;;;;;;6185568;23;20171;-89
2022/10/29 06:02:57;;;;;;;17.80;11.13;;;;;;;;;;6184951;23;20172;-88
2022/10/29 06:05:26;;;;;;;0.93;0.93;;;;;;;;;;6184961;23;20182;-89
2022/10/29 06:07:55;;;;;;;0.50;0.50;;;;;;;;;;6186803;23;20190;-88
2022/10/29 06:10:25;;;;;;;3.07;2.87;;;;;;;;;;6185160;23;20178;-88
2022/10/29 06:12:53;;;;;;;0.40;0.40;;;;;;;;;;6185090;23;20182;-89
2022/10/29 06:15:23;;;;;;;2.47;2.27;;;;;;;;;;6184982;23;20238;-88
2022/10/29 06:17:51;;;;;;;1.47;1.47;;;;;;;;;;6185340;23;20182;-88
2022/10/29 06:20:21;;;;;;;1.70;1.70;;;;;;;;;;6185105;23;20172;-88
2022/10/29 06:22:57;;;;;;;1.23;1.23;;;;;;;;;;6186553;23;20226;-89
2022/10/29 06:25:26;;;;;;;1.23;1.23;;;;;;;;;;6185228;23;20175;-89
2022/10/29 06:28:01;;;;;;;2.33;2.23;;;;;;;;;;6184773;23;20247;-89
2022/10/29 06:30:31;;;;;;;1.40;1.27;;;;;;;;;;6184851;23;20232;-88
2022/10/29 06:33:00;;;;;;;4.43;4.13;;;;;;;;;;6184830;23;20176;-89
2022/10/29 06:35:28;;;;;;;5.10;3.17;;;;;;;;;;6185093;23;20239;-89
2022/10/29 06:37:57;;;;;;;3.03;1.07;;;;;;;;;;6185149;23;20182;-88
2022/10/29 06:40:26;;;;;;;6.60;4.13;;;;;;;;;;6184886;23;20179;-89
2022/10/29 06:43:01;;;;;;;49.47;19.80;;;;;;;;;;6185186;23;20175;-89
2022/10/29 06:45:31;;;;;;;37.57;19.10;;;;;;;;;;6185040;23;20179;-88
2022/10/29 06:48:00;;;;;;;34.47;19.47;;;;;;;;;;6184333;23;20203;-89
2022/10/29 06:50:28;;;;;;;22.83;17.50;;;;;;;;;;6185072;23;20180;-88
2022/10/29 06:53:00;;;;;;;28.57;17.03;;;;;;;;;;6185070;23;20246;-88
2022/10/29 06:55:29;;;;;;;22.63;11.77;;;;;;;;;;6184667;23;20270;-88
2022/10/29 06:57:58;;;;;;;17.70;10.57;;;;;;;;;;6185202;23;20171;-89
2022/10/29 07:00:26;;;;;;;30.97;15.87;;;;;;;;;;6184740;23;20234;-89
2022/10/29 07:02:56;;;;;;;31.47;15.77;;;;;;;;;;6185306;23;20218;-89
2022/10/29 07:05:26;;;;;;;3.10;2.80;;;;;;;;;;6184572;23;20171;-89
2022/10/29 07:07:57;;;;;;;13.80;9.50;;;;;;;;;;6185925;23;20201;-89
2022/10/29 07:10:27;;;;;;;1.80;1.70;;;;;;;;;;6184757;23;20271;-89
2022/10/29 07:12:55;;;;;;;6.50;4.63;;;;;;;;;;6184947;23;20198;-89
2022/10/29 07:15:24;;;;;;;15.30;7.73;;;;;;;;;;6184618;23;20179;-89
2022/10/29 07:17:57;;;;;;;0.30;0.30;;;;;;;;;;6184558;23;20178;-89
2022/10/29 07:20:26;;;;;;;0.80;0.80;;;;;;;;;;6184666;23;20180;-89
2022/10/29 07:22:56;;;;;;;13.57;2.93;;;;;;;;;;6184424;23;20243;-89
2022/10/29 07:25:25;;;;;;;1.03;1.03;;;;;;;;;;6184570;23;20187;-89
2022/10/29 07:27:53;;;;;;;3.20;3.00;;;;;;;;;;6184890;23;20192;-89
2022/10/29 07:30:22;;;;;;;4.50;3.53;;;;;;;;;;6184603;23;20181;-89
2022/10/29 07:32:51;;;;;;;11.30;6.23;;;;;;;;;;6184306;23;20181;-89
2022/10/29 07:35:22;;;;;;;2.10;2.00;;;;;;;;;;6184338;23;20185;-89
2022/10/29 07:37:50;;;;;;;4.17;3.87;;;;;;;;;;6184698;23;20177;-89
2022/10/29 07:40:19;;;;;;;3.13;2.93;;;;;;;;;;6184254;23;20188;-89
2022/10/29 07:42:52;;;;;;;1.63;1.53;;;;;;;;;;6184476;23;20178;-89
2022/10/29 07:45:21;;;;;;;2.47;2.30;;;;;;;;;;6184523;23;20245;-89
2022/10/29 07:47:49;;;;;;;5.23;3.67;;;;;;;;;;6184510;23;20199;-89
2022/10/29 07:50:18;;;;;;;0.97;0.97;;;;;;;;;;6184478;23;20189;-89
2022/10/29 07:52:48;;;;;;;2.90;2.67;;;;;;;;;;6186073;23;20231;-89
2022/10/29 07:55:16;;;;;;;6.83;4.30;;;;;;;;;;6184771;23;20180;-89
2022/10/29 07:57:49;;;;;;;1.43;1.43;;;;;;;;;;6184066;23;20204;-89
2022/10/29 08:00:18;;;;;;;6.13;4.90;;;;;;;;;;6184698;23;20185;-89
2022/10/29 08:02:53;;;;;;;2.83;2.63;;;;;;;;;;6184249;23;20191;-89
2022/10/29 08:05:27;;;;;;;10.73;6.07;;;;;;;;;;6184671;23;20180;-89
2022/10/29 08:07:56;;;;;;;3.10;2.50;;;;;;;;;;6183896;23;20192;-89
2022/10/29 08:10:26;;;;;;;1.90;1.60;;;;;;;;;;6184541;23;20183;-89
2022/10/29 08:12:55;;;;;;;2.67;2.47;;;;;;;;;;6184153;23;20177;-89
2022/10/29 08:15:24;;;;;;;2.83;2.73;;;;;;;;;;6185578;23;20391;-89
2022/10/29 08:17:53;;;;;;;0.50;0.50;;;;;;;;;;6183938;23;20187;-89
2022/10/29 08:20:21;;;;;;;10.37;3.43;;;;;;;;;;6184280;23;20182;-89
2022/10/29 08:22:50;;;;;;;8.80;4.37;;;;;;;;;;6183897;23;20178;-89
2022/10/29 08:25:20;;;;;;;4.83;4.10;;;;;;;;;;6184358;23;20178;-89
2022/10/29 08:27:58;;;;;;;4.07;3.67;;;;;;;;;;6183821;23;20178;-89
2022/10/29 08:30:26;;;;;;;2.63;1.73;;;;;;;;;;6185643;23;20177;-89
2022/10/29 08:32:57;;;;;;;41.40;7.67;;;;;;;;;;6183817;23;20185;-89
2022/10/29 08:35:28;;;;;;;4.27;2.87;;;;;;;;;;6154443;23;20188;-89
2022/10/29 08:37:57;;;;;;;0.87;0.87;;;;;;;;;;6154323;23;20182;-89
2022/10/29 08:40:31;;;;;;;7.10;5.53;;;;;;;;;;6154744;23;20245;-89
2022/10/29 08:43:18;;;;;;;6.23;3.20;;;;;;;;;;6154610;23;20185;-89
2022/10/29 08:45:48;;;;;;;4.37;3.97;;;;;;;;;;6154688;23;20218;-89
2022/10/29 08:48:21;;;;;;;8.93;4.80;;;;;;;;;;6155324;23;20638;-89
2022/10/29 08:50:50;;;;;;;3.67;3.47;;;;;;;;;;6154653;23;20178;-89
2022/10/29 08:53:21;;;;;;;3.33;3.03;;;;;;;;;;6154535;23;20218;-89
2022/10/29 08:55:54;;;;;;;9.00;4.53;;;;;;;;;;6154645;23;20180;-89
2022/10/29 08:58:28;;;;;;;11.03;7.53;;;;;;;;;;6155417;23;20167;-89
2022/10/29 09:00:58;;;;;;;5.47;3.73;;;;;;;;;;6154276;23;20189;-89
2022/10/29 09:03:28;;;;;;;6.03;4.50;;;;;;;;;;6154062;23;20198;-89
2022/10/29 09:06:01;;;;;;;16.53;9.60;;;;;;;;;;6153954;23;20186;-87
2022/10/29 09:08:36;;;;;;;3.80;3.60;;;;;;;;;;6154162;23;20194;-88
2022/10/29 09:11:16;;;;;;;10.33;7.57;;;;;;;;;;6156043;23;20210;-87
2022/10/29 09:13:48;;;;;;;9.83;7.30;;;;;;;;;;6155842;23;20181;-88
2022/10/29 09:16:21;;;;;;;12.30;9.07;;;;;;;;;;6156517;23;20174;-87
2022/10/29 09:19:01;;;;;;;8.30;4.23;;;;;;;;;;6156271;23;20178;-87
2022/10/29 09:21:33;;;;;;;1.83;1.73;;;;;;;;;;6156363;23;20209;-84
2022/10/29 09:24:07;;;;;;;11.40;7.73;;;;;;;;;;6155539;23;20178;-87
2022/10/29 09:26:43;;;;;;;6.50;4.57;;;;;;;;;;6156037;23;20182;-87
2022/10/29 09:29:19;;;;;;;5.30;4.00;;;;;;;;;;6156070;23;20224;-88
2022/10/29 09:31:49;;;;;;;3.53;3.23;;;;;;;;;;6155636;23;20238;-88
2022/10/29 09:34:19;;;;;;;3.67;3.37;;;;;;;;;;6156921;23;20205;-87
2022/10/29 09:36:48;;;;;;;5.70;4.20;;;;;;;;;;6155760;23;20184;-87
2022/10/29 09:39:19;;;;;;;4.77;3.07;;;;;;;;;;6156096;23;20175;-87
2022/10/29 09:41:53;;;;;;;4.53;4.10;;;;;;;;;;6155511;23;20173;-87
2022/10/29 09:44:23;;;;;;;3.17;2.90;;;;;;;;;;6155998;23;20179;-87
2022/10/29 09:46:57;;;;;;;7.03;5.33;;;;;;;;;;6155406;23;20181;-88
2022/10/29 09:49:32;;;;;;;5.97;5.43;;;;;;;;;;6155373;23;20228;-88
2022/10/29 09:52:02;;;;;;;10.97;5.43;;;;;;;;;;6155471;23;20201;-88
2022/10/29 09:54:32;;;;;;;2.73;2.53;;;;;;;;;;6155509;23;20182;-89
2022/10/29 09:57:03;;;;;;;10.50;5.87;;;;;;;;;;6156836;23;20228;-88
2022/10/29 09:59:33;;;;;;;11.13;4.40;;;;;;;;;;6155957;23;20214;-88
2022/10/29 10:02:02;;;;;;;5.13;4.63;;;;;;;;;;6155457;23;20179;-88
2022/10/29 10:04:33;;;;;;;8.90;4.90;;;;;;;;;;6155497;23;20210;-88
2022/10/29 10:07:02;;;;;;;6.63;5.97;;;;;;;;;;6155342;23;20175;-88
2022/10/29 10:09:50;;;;;;;6.90;4.70;;;;;;;;;;6155206;23;20196;-88
2022/10/29 10:12:20;;;;;;;2.27;2.07;;;;;;;;;;6155448;23;20180;-88
2022/10/29 10:14:49;;;;;;;8.53;5.30;;;;;;;;;;6155685;23;20168;-88
2022/10/29 10:17:17;;;;;;;3.07;2.87;;;;;;;;;;6155786;23;20181;-88
2022/10/29 10:19:47;;;;;;;9.33;4.90;;;;;;;;;;6156640;23;20183;-88
2022/10/29 10:22:19;;;;;;;15.13;9.03;;;;;;;;;;6157014;23;20227;-88
2022/10/29 10:24:48;;;;;;;8.83;5.33;;;;;;;;;;6155936;23;20172;-88
2022/10/29 10:27:30;;;;;;;9.37;5.20;;;;;;;;;;6155312;23;20184;-87
2022/10/29 10:30:12;;;;;;;2.03;1.80;;;;;;;;;;6155250;23;20199;-88
2022/10/29 10:32:41;;;;;;;16.73;10.87;;;;;;;;;;6155520;23;20183;-88
2022/10/29 10:35:33;;;;;;;5.63;4.70;;;;;;;;;;6155012;23;20258;-88
2022/10/29 10:38:07;;;;;;;5.53;3.93;;;;;;;;;;6127742;23;20177;-88
2022/10/29 10:40:36;;;;;;;11.57;7.67;;;;;;;;;;6155387;23;20192;-88
2022/10/29 10:43:07;;;;;;;8.57;6.20;;;;;;;;;;6154923;23;20183;-88
2022/10/29 10:45:38;;;;;;;12.57;6.67;;;;;;;;;;6155542;23;20179;-88
2022/10/29 10:48:08;;;;;;;8.93;6.97;;;;;;;;;;6155244;23;20199;-88
2022/10/29 10:50:37;;;;;;;8.80;4.43;;;;;;;;;;6156046;23;20277;-87
2022/10/29 10:53:16;;;;;;;7.27;3.77;;;;;;;;;;6155002;23;20177;-87
2022/10/29 10:55:48;;;;;;;8.07;4.53;;;;;;;;;;6156345;23;20171;-88
2022/10/29 10:58:20;;;;;;;9.07;4.70;;;;;;;;;;6154785;23;20172;-88
2022/10/29 11:00:52;;;;;;;5.97;3.03;;;;;;;;;;6155072;23;20173;-88
2022/10/29 11:03:22;;;;;;;2.57;1.13;;;;;;;;;;6155976;23;20192;-88
2022/10/29 11:06:02;;;;;;;9.43;6.00;;;;;;;;;;6155380;23;20262;-88
2022/10/29 11:08:33;;;;;;;4.57;2.47;;;;;;;;;;6156195;23;20177;-88
2022/10/29 11:11:05;;;;;;;15.50;9.40;;;;;;;;;;6154934;23;20209;-88
2022/10/29 11:13:35;;;;;;;5.60;2.83;;;;;;;;;;6154787;23;20176;-88
2022/10/29 11:16:08;;;;;;;10.83;5.97;;;;;;;;;;6154791;23;20176;-88
2022/10/29 11:18:39;;;;;;;9.83;4.70;;;;;;;;;;6154880;23;20187;-88
2022/10/29 11:21:12;;;;;;;11.73;6.97;;;;;;;;;;6154956;23;20182;-88
2022/10/29 11:23:45;;;;;;;1.43;1.40;;;;;;;;;;6154949;23;20180;-87
2022/10/29 11:26:18;;;;;;;9.20;6.83;;;;;;;;;;6155018;23;20200;-88
2022/10/29 11:28:51;;;;;;;12.27;6.23;;;;;;;;;;6154990;23;20184;-88
2022/10/29 11:31:22;;;;;;;11.37;6.80;;;;;;;;;;6154797;23;20201;-88
2022/10/29 11:33:54;;;;;;;13.13;6.57;;;;;;;;;;6154317;23;20206;-88
2022/10/29 11:36:24;;;;;;;3.70;3.30;;;;;;;;;;6156123;23;20172;-87
2022/10/29 11:38:54;;;;;;;4.73;3.60;;;;;;;;;;6154941;23;20209;-88
2022/10/29 11:41:26;;;;;;;3.40;2.67;;;;;;;;;;6154782;23;20227;-88
2022/10/29 11:43:56;;;;;;;10.57;6.47;;;;;;;;;;6154735;23;20179;-88
2022/10/29 11:46:29;;;;;;;8.03;5.10;;;;;;;;;;6154675;23;20186;-88
2022/10/29 11:49:04;;;;;;;11.53;3.13;;;;;;;;;;6155832;23;20168;-88
2022/10/29 11:51:36;;;;;;;6.80;5.17;;;;;;;;;;6154251;23;20198;-87
2022/10/29 11:54:07;;;;;;;6.10;5.13;;;;;;;;;;6154342;23;20196;-88
2022/10/29 11:56:45;;;;;;;17.63;5.43;;;;;;;;;;6156243;23;20186;-87
2022/10/29 11:59:21;;;;;;;8.37;5.73;;;;;;;;;;6154453;23;20178;-88
2022/10/29 12:01:53;;;;;;;10.87;7.13;;;;;;;;;;6154344;23;20178;-88
2022/10/29 12:04:26;;;;;;;11.10;5.20;;;;;;;;;;6154520;23;20203;-88
2022/10/29 12:07:11;;;;;;;1.63;1.40;;;;;;;;;;6154896;23;20171;-87
2022/10/29 12:09:45;;;;;;;9.50;6.67;;;;;;;;;;6154395;23;20183;-87
2022/10/29 12:12:17;;;;;;;7.20;4.37;;;;;;;;;;6154781;23;20177;-88
2022/10/29 12:14:50;;;;;;;7.53;5.50;;;;;;;;;;6154385;23;20172;-88
2022/10/29 12:17:21;;;;;;;9.33;5.83;;;;;;;;;;6154983;23;20226;-88
2022/10/29 12:19:55;;;;;;;11.83;7.30;;;;;;;;;;6154432;23;20255;-87
2022/10/29 12:22:29;;;;;;;1.33;1.33;;;;;;;;;;6155688;23;20172;-88
2022/10/29 12:25:03;;;;;;;11.10;6.13;;;;;;;;;;6155719;23;20195;-88
2022/10/29 12:27:39;;;;;;;15.47;8.00;;;;;;;;;;6154300;23;20233;-88
2022/10/29 12:30:10;;;;;;;11.23;8.17;;;;;;;;;;6154674;23;20176;-88
2022/10/29 12:32:43;;;;;;;17.93;10.57;;;;;;;;;;6155902;23;20172;-87
2022/10/29 12:35:16;;;;;;;14.87;8.43;;;;;;;;;;6154664;23;20208;-87
2022/10/29 12:37:48;;;;;;;11.53;9.73;;;;;;;;;;6154041;23;20183;-87
2022/10/29 12:40:18;;;;;;;8.67;5.87;;;;;;;;;;6154458;23;20176;-88
2022/10/29 12:42:47;;;;;;;8.50;5.43;;;;;;;;;;6154177;23;20181;-88
2022/10/29 12:45:24;;;;;;;8.97;7.53;;;;;;;;;;6156257;23;20230;-87
2022/10/29 12:47:55;;;;;;;4.97;3.93;;;;;;;;;;6155986;23;20182;-88
2022/10/29 12:50:26;;;;;;;9.27;4.93;;;;;;;;;;6156244;23;20201;-88
2022/10/29 12:52:58;;;;;;;11.60;7.13;;;;;;;;;;6157342;23;20168;-87
2022/10/29 12:55:26;;;;;;;7.47;2.17;;;;;;;;;;6156547;23;20176;-88
2022/10/29 12:57:55;;;;;;;6.83;4.83;;;;;;;;;;6157592;23;20203;-88
2022/10/29 13:00:41;;;;;;;7.07;4.63;;;;;;;;;;6156351;23;20238;-88
2022/10/29 13:03:11;;;;;;;9.23;6.73;;;;;;;;;;6138036;23;20200;-87
2022/10/29 13:05:44;;;;;;;11.83;7.37;;;;;;;;;;6156204;23;20186;-87
2022/10/29 13:08:27;;;;;;;11.60;7.07;;;;;;;;;;6156409;23;20186;-87
2022/10/29 13:10:56;;;;;;;9.80;6.80;;;;;;;;;;6156174;23;20251;-87
2022/10/29 13:13:36;;;;;;;13.73;7.60;;;;;;;;;;6157324;23;20176;-87
2022/10/29 13:16:05;;;;;;;7.07;4.57;;;;;;;;;;6156366;23;20234;-87
2022/10/29 13:18:45;;;;;;;15.30;7.33;;;;;;;;;;6155992;23;20180;-88
2022/10/29 13:21:13;;;;;;;16.80;8.30;;;;;;;;;;6155779;23;20219;-87
2022/10/29 13:23:42;;;;;;;13.43;6.90;;;;;;;;;;6156360;23;20174;-87
2022/10/29 13:26:10;;;;;;;11.37;6.83;;;;;;;;;;6155996;23;20191;-87
2022/10/29 13:28:47;;;;;;;13.13;7.80;;;;;;;;;;6156183;23;20180;-88
2022/10/29 13:31:34;;;;;;;8.27;6.70;;;;;;;;;;6156165;23;20192;-88
2022/10/29 13:34:03;;;;;;;9.53;6.83;;;;;;;;;;6155811;23;20207;-87
2022/10/29 13:36:38;;;;;;;14.70;6.63;;;;;;;;;;6155514;23;20183;-87
2022/10/29 13:39:18;;;;;;;9.83;5.90;;;;;;;;;;6157330;23;20188;-87
2022/10/29 13:41:50;;;;;;;13.87;6.77;;;;;;;;;;6155743;23;20184;-87
2022/10/29 13:44:22;;;;;;;14.53;8.73;;;;;;;;;;6155849;23;20183;-87
2022/10/29 13:46:52;;;;;;;10.07;5.57;;;;;;;;;;6155466;23;20237;-88
2022/10/29 13:49:25;;;;;;;11.60;6.40;;;;;;;;;;6155680;23;20178;-87
2022/10/29 13:51:55;;;;;;;13.83;7.57;;;;;;;;;;6155242;23;20199;-88
2022/10/29 13:54:31;;;;;;;11.40;4.90;;;;;;;;;;6155601;23;20261;-88
2022/10/29 13:57:00;;;;;;;8.63;6.00;;;;;;;;;;6155068;23;20181;-87
2022/10/29 13:59:32;;;;;;;11.50;7.20;;;;;;;;;;6155766;23;20237;-88
2022/10/29 14:02:06;;;;;;;13.13;7.60;;;;;;;;;;6155612;23;20266;-87
2022/10/29 14:04:38;;;;;;;14.53;7.90;;;;;;;;;;6155775;23;20201;-87
2022/10/29 14:07:12;;;;;;;9.50;5.87;;;;;;;;;;6155520;23;20208;-88
2022/10/29 14:09:43;;;;;;;8.97;6.90;;;;;;;;;;6156923;23;20222;-87
2022/10/29 14:12:16;;;;;;;14.97;8.87;;;;;;;;;;6155300;23;20198;-88
2022/10/29 14:14:49;;;;;;;13.93;9.00;;;;;;;;;;6157002;23;20169;-87
2022/10/29 14:17:19;;;;;;;13.37;7.77;;;;;;;;;;6155265;23;20200;-87
2022/10/29 14:19:49;;;;;;;9.77;5.87;;;;;;;;;;6155448;23;20184;-88
2022/10/29 14:22:22;;;;;;;9.60;6.37;;;;;;;;;;6155613;23;20180;-87
2022/10/29 14:24:50;;;;;;;19.70;6.80;;;;;;;;;;6155652;23;20175;-87
2022/10/29 14:27:19;;;;;;;10.30;6.90;;;;;;;;;;6155293;23;20185;-87
2022/10/29 14:29:48;;;;;;;10.27;7.87;;;;;;;;;;6155551;23;20229;-88
2022/10/29 14:32:22;;;;;;;10.70;5.70;;;;;;;;;;6155226;23;20287;-88
2022/10/29 14:34:53;;;;;;;11.73;7.30;;;;;;;;;;6156783;23;20207;-88
2022/10/29 14:37:26;;;;;;;8.37;5.70;;;;;;;;;;6157137;23;20174;-88
2022/10/29 14:39:55;;;;;;;11.80;6.93;;;;;;;;;;6155920;23;20172;-88
2022/10/29 14:42:30;;;;;;;7.37;3.97;;;;;;;;;;6155470;23;20267;-88
2022/10/29 14:45:00;;;;;;;15.43;6.30;;;;;;;;;;6154741;23;20180;-87
2022/10/29 14:47:30;;;;;;;12.33;5.03;;;;;;;;;;6155304;23;20183;-88
2022/10/29 14:50:03;;;;;;;15.50;7.83;;;;;;;;;;6154816;23;20207;-88
2022/10/29 14:52:33;;;;;;;12.33;6.70;;;;;;;;;;6155502;23;20202;-87
2022/10/29 14:55:02;;;;;;;9.87;4.70;;;;;;;;;;6155115;23;20181;-88
2022/10/29 14:57:34;;;;;;;11.67;6.03;;;;;;;;;;6156327;23;20187;-87